UKV149 EGLL-EGPH
Flight info
| Callsign | UKV149 |
|---|---|
| Flight time | 1h 3m |
| Altitude | 32000 |
| Route | EGLL/09R N0448F320 ULTI1J ULTIB T420 TNT UN57 POL UN601 RIBEL DCT INPIP INPI1E EGPH/06 |
| Aircraft | B738/L-SG/L |
Departure
| Time | 2026-05-06 08:47 |
|---|---|
| Airport | London Heathrow Airport (EGLL) |
Arrival
| Time | 2026-05-06 09:50 |
|---|---|
| Airport | Edinburgh Airport (EGPH) |
| Time | Latitude | Longitude | Altitude | Speed | Heading |
|---|---|---|---|---|---|
| 2026-05-06 08:14 | 51.46997 | -0.44675 | 89 ft | 0 kts | 270° |
| 2026-05-06 08:29 | 51.46997 | -0.44667 | 87 ft | 4 kts | 270° |
| 2026-05-06 08:29 | 51.46997 | -0.44624 | 87 ft | 4 kts | 270° |
| 2026-05-06 08:29 | 51.46997 | -0.44590 | 87 ft | 4 kts | 258° |
| 2026-05-06 08:30 | 51.47008 | -0.44559 | 90 ft | 4 kts | 196° |
| 2026-05-06 08:30 | 51.47033 | -0.44556 | 87 ft | 4 kts | 180° |
| 2026-05-06 08:30 | 51.47040 | -0.44556 | 87 ft | 0 kts | 180° |
| 2026-05-06 08:37 | 51.47027 | -0.44556 | 87 ft | 3 kts | 180° |
| 2026-05-06 08:38 | 51.46990 | -0.44556 | 91 ft | 7 kts | 180° |
| 2026-05-06 08:38 | 51.46928 | -0.44556 | 87 ft | 11 kts | 179° |
| 2026-05-06 08:38 | 51.46846 | -0.44554 | 88 ft | 12 kts | 179° |
| 2026-05-06 08:38 | 51.46771 | -0.44553 | 90 ft | 12 kts | 181° |
| 2026-05-06 08:39 | 51.46686 | -0.44563 | 90 ft | 12 kts | 203° |
| 2026-05-06 08:39 | 51.46665 | -0.44671 | 87 ft | 10 kts | 268° |
| 2026-05-06 08:39 | 51.46664 | -0.44786 | 87 ft | 11 kts | 270° |
| 2026-05-06 08:39 | 51.46664 | -0.44907 | 87 ft | 11 kts | 270° |
| 2026-05-06 08:40 | 51.46663 | -0.45036 | 87 ft | 12 kts | 269° |
| 2026-05-06 08:40 | 51.46663 | -0.45176 | 87 ft | 13 kts | 270° |
| 2026-05-06 08:40 | 51.46664 | -0.45322 | 87 ft | 13 kts | 270° |
| 2026-05-06 08:40 | 51.46663 | -0.45472 | 87 ft | 13 kts | 272° |
| 2026-05-06 08:41 | 51.46662 | -0.45615 | 87 ft | 13 kts | 270° |
| 2026-05-06 08:41 | 51.46662 | -0.45757 | 87 ft | 13 kts | 269° |
| 2026-05-06 08:41 | 51.46660 | -0.45901 | 87 ft | 13 kts | 269° |
| 2026-05-06 08:41 | 51.46661 | -0.46047 | 87 ft | 13 kts | 270° |
| 2026-05-06 08:42 | 51.46660 | -0.46195 | 91 ft | 13 kts | 269° |
| 2026-05-06 08:42 | 51.46660 | -0.46347 | 87 ft | 14 kts | 270° |
| 2026-05-06 08:42 | 51.46659 | -0.46503 | 91 ft | 14 kts | 270° |
| 2026-05-06 08:42 | 51.46659 | -0.46665 | 91 ft | 15 kts | 270° |
| 2026-05-06 08:43 | 51.46658 | -0.46834 | 91 ft | 16 kts | 269° |
| 2026-05-06 08:43 | 51.46658 | -0.47014 | 91 ft | 17 kts | 270° |
| 2026-05-06 08:43 | 51.46657 | -0.47207 | 90 ft | 18 kts | 268° |
| 2026-05-06 08:43 | 51.46656 | -0.47400 | 90 ft | 17 kts | 269° |
| 2026-05-06 08:44 | 51.46655 | -0.47593 | 87 ft | 17 kts | 269° |
| 2026-05-06 08:44 | 51.46655 | -0.47782 | 88 ft | 17 kts | 269° |
| 2026-05-06 08:44 | 51.46654 | -0.47969 | 87 ft | 17 kts | 270° |
| 2026-05-06 08:44 | 51.46653 | -0.48141 | 87 ft | 13 kts | 269° |
| 2026-05-06 08:45 | 51.46624 | -0.48208 | 91 ft | 7 kts | 198° |
| 2026-05-06 08:45 | 51.46564 | -0.48213 | 88 ft | 11 kts | 180° |
| 2026-05-06 08:45 | 51.46486 | -0.48169 | 92 ft | 14 kts | 115° |
| 2026-05-06 08:45 | 51.46480 | -0.47916 | 88 ft | 47 kts | 90° |
| 2026-05-06 08:46 | 51.46482 | -0.47044 | 89 ft | 107 kts | 88° |
| 2026-05-06 08:46 | 51.46492 | -0.45581 | 87 ft | 153 kts | 91° |
| 2026-05-06 08:46 | 51.46526 | -0.43815 | 466 ft | 152 kts | 91° |
| 2026-05-06 08:46 | 51.46405 | -0.42009 | 549 ft | 178 kts | 94° |
| 2026-05-06 08:47 | 51.46228 | -0.39914 | 696 ft | 200 kts | 94° |
| 2026-05-06 08:47 | 51.46029 | -0.37644 | 1184 ft | 202 kts | 84° |
| 2026-05-06 08:47 | 51.46485 | -0.35650 | 1759 ft | 193 kts | 38° |
| 2026-05-06 08:47 | 51.47688 | -0.34838 | 2361 ft | 185 kts | 10° |
| 2026-05-06 08:48 | 51.48923 | -0.34417 | 3005 ft | 181 kts | 17° |
| 2026-05-06 08:48 | 51.50115 | -0.33689 | 3449 ft | 187 kts | 26° |
| 2026-05-06 08:48 | 51.51249 | -0.32535 | 3801 ft | 200 kts | 38° |
| 2026-05-06 08:48 | 51.52134 | -0.30724 | 4118 ft | 219 kts | 65° |
| 2026-05-06 08:49 | 51.52659 | -0.28320 | 4400 ft | 236 kts | 66° |
| 2026-05-06 08:49 | 51.53196 | -0.25740 | 4770 ft | 248 kts | 67° |
| 2026-05-06 08:49 | 51.53762 | -0.23067 | 5221 ft | 256 kts | 66° |
| 2026-05-06 08:49 | 51.54400 | -0.20367 | 5759 ft | 259 kts | 55° |
| 2026-05-06 08:50 | 51.55581 | -0.18190 | 5998 ft | 260 kts | 30° |
| 2026-05-06 08:50 | 51.57205 | -0.17054 | 6035 ft | 254 kts | 7° |
| 2026-05-06 08:50 | 51.58930 | -0.17091 | 6129 ft | 252 kts | 345° |
| 2026-05-06 08:50 | 51.60508 | -0.18271 | 6237 ft | 252 kts | 322° |
| 2026-05-06 08:51 | 51.61651 | -0.20409 | 6336 ft | 256 kts | 298° |
| 2026-05-06 08:51 | 51.62285 | -0.23098 | 6456 ft | 257 kts | 295° |
| 2026-05-06 08:51 | 51.63086 | -0.25663 | 6537 ft | 255 kts | 313° |
| 2026-05-06 08:51 | 51.64483 | -0.27352 | 6649 ft | 253 kts | 339° |
| 2026-05-06 08:52 | 51.66139 | -0.28326 | 6756 ft | 253 kts | 338° |
| 2026-05-06 08:52 | 51.67728 | -0.29565 | 6845 ft | 255 kts | 332° |
| 2026-05-06 08:52 | 51.69272 | -0.30980 | 6937 ft | 256 kts | 329° |
| 2026-05-06 08:52 | 51.70778 | -0.32469 | 7021 ft | 258 kts | 329° |
| 2026-05-06 08:53 | 51.72315 | -0.33977 | 7107 ft | 259 kts | 329° |
| 2026-05-06 08:53 | 51.73868 | -0.35472 | 7209 ft | 260 kts | 329° |
| 2026-05-06 08:53 | 51.75433 | -0.36975 | 7309 ft | 262 kts | 329° |
| 2026-05-06 08:53 | 51.77002 | -0.38491 | 7405 ft | 263 kts | 329° |
| 2026-05-06 08:54 | 51.78580 | -0.40020 | 7497 ft | 265 kts | 329° |
| 2026-05-06 08:54 | 51.80167 | -0.41557 | 7621 ft | 266 kts | 329° |
| 2026-05-06 08:54 | 51.81743 | -0.43074 | 7738 ft | 267 kts | 330° |
| 2026-05-06 08:54 | 51.83374 | -0.44512 | 7888 ft | 268 kts | 333° |
| 2026-05-06 08:55 | 51.85039 | -0.45883 | 8019 ft | 269 kts | 334° |
| 2026-05-06 08:55 | 51.86717 | -0.47243 | 8175 ft | 270 kts | 334° |
| 2026-05-06 08:55 | 51.88397 | -0.48600 | 8326 ft | 271 kts | 334° |
| 2026-05-06 08:55 | 51.90091 | -0.49967 | 8487 ft | 272 kts | 334° |
| 2026-05-06 08:56 | 51.91792 | -0.51334 | 8665 ft | 273 kts | 334° |
| 2026-05-06 08:56 | 51.93492 | -0.52700 | 8841 ft | 274 kts | 334° |
| 2026-05-06 08:56 | 51.95206 | -0.54076 | 9020 ft | 275 kts | 334° |
| 2026-05-06 08:56 | 51.96919 | -0.55448 | 9313 ft | 271 kts | 334° |
| 2026-05-06 08:57 | 51.98606 | -0.56798 | 9627 ft | 271 kts | 334° |
| 2026-05-06 08:57 | 52.00263 | -0.58120 | 9924 ft | 271 kts | 334° |
| 2026-05-06 08:57 | 52.01973 | -0.59485 | 10211 ft | 269 kts | 334° |
| 2026-05-06 08:57 | 52.03672 | -0.60834 | 10541 ft | 276 kts | 334° |
| 2026-05-06 08:58 | 52.05394 | -0.62197 | 10834 ft | 273 kts | 334° |
| 2026-05-06 08:58 | 52.07109 | -0.63545 | 11133 ft | 282 kts | 334° |
| 2026-05-06 08:58 | 52.08861 | -0.64920 | 11473 ft | 276 kts | 333° |
| 2026-05-06 08:58 | 52.10617 | -0.66292 | 11860 ft | 280 kts | 333° |
| 2026-05-06 08:59 | 52.12368 | -0.67651 | 12236 ft | 281 kts | 333° |
| 2026-05-06 08:59 | 52.14153 | -0.69032 | 12627 ft | 285 kts | 333° |
| 2026-05-06 08:59 | 52.15944 | -0.70420 | 13022 ft | 286 kts | 334° |
| 2026-05-06 08:59 | 52.17761 | -0.71831 | 13423 ft | 292 kts | 333° |
| 2026-05-06 09:00 | 52.19592 | -0.73244 | 13814 ft | 291 kts | 333° |
| 2026-05-06 09:00 | 52.21432 | -0.74654 | 14183 ft | 292 kts | 333° |
| 2026-05-06 09:00 | 52.23281 | -0.76055 | 14545 ft | 295 kts | 334° |
| 2026-05-06 09:00 | 52.25148 | -0.77469 | 14909 ft | 295 kts | 334° |
| 2026-05-06 09:01 | 52.27000 | -0.78868 | 15270 ft | 298 kts | 333° |
| 2026-05-06 09:01 | 52.28893 | -0.80294 | 15674 ft | 299 kts | 333° |
| 2026-05-06 09:01 | 52.30799 | -0.81709 | 16059 ft | 302 kts | 333° |
| 2026-05-06 09:01 | 52.32727 | -0.83126 | 16447 ft | 306 kts | 334° |
| 2026-05-06 09:02 | 52.34675 | -0.84553 | 16848 ft | 307 kts | 334° |
| 2026-05-06 09:02 | 52.36640 | -0.85994 | 17242 ft | 309 kts | 334° |
| 2026-05-06 09:02 | 52.38611 | -0.87448 | 17645 ft | 311 kts | 333° |
| 2026-05-06 09:02 | 52.40595 | -0.88903 | 18066 ft | 313 kts | 333° |
| 2026-05-06 09:03 | 52.42570 | -0.90345 | 18443 ft | 316 kts | 333° |
| 2026-05-06 09:03 | 52.44586 | -0.91811 | 18800 ft | 318 kts | 333° |
| 2026-05-06 09:03 | 52.46613 | -0.93285 | 19161 ft | 319 kts | 334° |
| 2026-05-06 09:03 | 52.48653 | -0.94774 | 19532 ft | 321 kts | 333° |
| 2026-05-06 09:04 | 52.50704 | -0.96264 | 19900 ft | 322 kts | 333° |
| 2026-05-06 09:04 | 52.52761 | -0.97750 | 20279 ft | 323 kts | 333° |
| 2026-05-06 09:04 | 52.54825 | -0.99233 | 20654 ft | 324 kts | 333° |
| 2026-05-06 09:04 | 52.56894 | -1.00717 | 21051 ft | 325 kts | 333° |
| 2026-05-06 09:05 | 52.58967 | -1.02210 | 21436 ft | 325 kts | 333° |
| 2026-05-06 09:05 | 52.61045 | -1.03707 | 21824 ft | 325 kts | 333° |
| 2026-05-06 09:05 | 52.63119 | -1.05196 | 22216 ft | 325 kts | 333° |
| 2026-05-06 09:05 | 52.65162 | -1.06657 | 22604 ft | 325 kts | 333° |
| 2026-05-06 09:06 | 52.67233 | -1.08132 | 23002 ft | 324 kts | 333° |
| 2026-05-06 09:06 | 52.69307 | -1.09602 | 23416 ft | 323 kts | 333° |
| 2026-05-06 09:06 | 52.71369 | -1.11058 | 23777 ft | 322 kts | 333° |
| 2026-05-06 09:06 | 52.73428 | -1.12509 | 24105 ft | 320 kts | 333° |
| 2026-05-06 09:07 | 52.75474 | -1.13951 | 24470 ft | 318 kts | 333° |
| 2026-05-06 09:07 | 52.77503 | -1.15386 | 24830 ft | 316 kts | 333° |
| 2026-05-06 09:07 | 52.79486 | -1.16792 | 25163 ft | 313 kts | 333° |
| 2026-05-06 09:07 | 52.81477 | -1.18204 | 25514 ft | 310 kts | 333° |
| 2026-05-06 09:08 | 52.83451 | -1.19604 | 25857 ft | 306 kts | 333° |
| 2026-05-06 09:08 | 52.85401 | -1.20984 | 26196 ft | 302 kts | 333° |
| 2026-05-06 09:08 | 52.87322 | -1.22342 | 26548 ft | 298 kts | 333° |
| 2026-05-06 09:08 | 52.89212 | -1.23677 | 26881 ft | 293 kts | 333° |
| 2026-05-06 09:09 | 52.91068 | -1.24985 | 27220 ft | 287 kts | 333° |
| 2026-05-06 09:09 | 52.92894 | -1.26269 | 27420 ft | 286 kts | 333° |
| 2026-05-06 09:09 | 52.94754 | -1.27582 | 27413 ft | 293 kts | 333° |
| 2026-05-06 09:09 | 52.96642 | -1.28922 | 27439 ft | 299 kts | 333° |
| 2026-05-06 09:10 | 52.98550 | -1.30280 | 27484 ft | 304 kts | 333° |
| 2026-05-06 09:10 | 53.00537 | -1.31699 | 27543 ft | 310 kts | 333° |
| 2026-05-06 09:10 | 53.02512 | -1.33108 | 27600 ft | 315 kts | 333° |
| 2026-05-06 09:10 | 53.04543 | -1.34560 | 27664 ft | 320 kts | 333° |
| 2026-05-06 09:11 | 53.06606 | -1.36038 | 27723 ft | 326 kts | 333° |
| 2026-05-06 09:11 | 53.08716 | -1.37555 | 27786 ft | 332 kts | 333° |
| 2026-05-06 09:11 | 53.10853 | -1.39095 | 27865 ft | 337 kts | 333° |
| 2026-05-06 09:11 | 53.13021 | -1.40662 | 27954 ft | 342 kts | 333° |
| 2026-05-06 09:12 | 53.15222 | -1.42258 | 28070 ft | 346 kts | 333° |
| 2026-05-06 09:12 | 53.17447 | -1.43875 | 28188 ft | 351 kts | 333° |
| 2026-05-06 09:12 | 53.19690 | -1.45508 | 28304 ft | 354 kts | 333° |
| 2026-05-06 09:12 | 53.21965 | -1.47168 | 28455 ft | 358 kts | 333° |
| 2026-05-06 09:13 | 53.24226 | -1.48821 | 28587 ft | 361 kts | 333° |
| 2026-05-06 09:13 | 53.26547 | -1.50516 | 28760 ft | 364 kts | 333° |
| 2026-05-06 09:13 | 53.28876 | -1.52210 | 28908 ft | 367 kts | 333° |
| 2026-05-06 09:13 | 53.31240 | -1.53928 | 29068 ft | 370 kts | 333° |
| 2026-05-06 09:14 | 53.33607 | -1.55645 | 29222 ft | 373 kts | 333° |
| 2026-05-06 09:14 | 53.36004 | -1.57377 | 29380 ft | 376 kts | 333° |
| 2026-05-06 09:14 | 53.38408 | -1.59115 | 29533 ft | 378 kts | 333° |
| 2026-05-06 09:14 | 53.40832 | -1.60866 | 29696 ft | 380 kts | 333° |
| 2026-05-06 09:15 | 53.43275 | -1.62635 | 29859 ft | 383 kts | 333° |
| 2026-05-06 09:15 | 53.45727 | -1.64412 | 30032 ft | 385 kts | 333° |
| 2026-05-06 09:15 | 53.48190 | -1.66199 | 30188 ft | 387 kts | 333° |
| 2026-05-06 09:15 | 53.50671 | -1.68000 | 30331 ft | 389 kts | 333° |
| 2026-05-06 09:16 | 53.53163 | -1.69813 | 30476 ft | 391 kts | 333° |
| 2026-05-06 09:16 | 53.55639 | -1.71616 | 30617 ft | 393 kts | 333° |
| 2026-05-06 09:16 | 53.58137 | -1.73498 | 30765 ft | 394 kts | 329° |
| 2026-05-06 09:16 | 53.60482 | -1.75699 | 30899 ft | 393 kts | 325° |
| 2026-05-06 09:17 | 53.62796 | -1.78171 | 31054 ft | 394 kts | 323° |
| 2026-05-06 09:17 | 53.65086 | -1.80749 | 31204 ft | 396 kts | 322° |
| 2026-05-06 09:17 | 53.67369 | -1.83372 | 31329 ft | 397 kts | 322° |
| 2026-05-06 09:17 | 53.69650 | -1.86017 | 31492 ft | 399 kts | 322° |
| 2026-05-06 09:18 | 53.71939 | -1.88684 | 31652 ft | 401 kts | 322° |
| 2026-05-06 09:18 | 53.74238 | -1.91365 | 31814 ft | 402 kts | 322° |
| 2026-05-06 09:18 | 53.76552 | -1.94056 | 31961 ft | 404 kts | 322° |
| 2026-05-06 09:18 | 53.78870 | -1.96750 | 32075 ft | 404 kts | 322° |
| 2026-05-06 09:19 | 53.81162 | -1.99408 | 32060 ft | 394 kts | 322° |
| 2026-05-06 09:19 | 53.85637 | -2.04588 | 32067 ft | 396 kts | 322° |
| 2026-05-06 09:20 | 53.90249 | -2.09952 | 32086 ft | 408 kts | 322° |
| 2026-05-06 09:20 | 53.94998 | -2.15501 | 32085 ft | 420 kts | 322° |
| 2026-05-06 09:21 | 53.99878 | -2.21230 | 32088 ft | 432 kts | 322° |
| 2026-05-06 09:21 | 54.04878 | -2.27129 | 32091 ft | 441 kts | 322° |
| 2026-05-06 09:22 | 54.09928 | -2.33112 | 32081 ft | 442 kts | 322° |
| 2026-05-06 09:22 | 54.15159 | -2.38670 | 32080 ft | 445 kts | 331° |
| 2026-05-06 09:23 | 54.19961 | -2.41925 | 32081 ft | 447 kts | 338° |
| 2026-05-06 09:23 | 54.25797 | -2.45577 | 32066 ft | 444 kts | 333° |
| 2026-05-06 09:24 | 54.31467 | -2.49788 | 32065 ft | 445 kts | 334° |
| 2026-05-06 09:24 | 54.37230 | -2.53686 | 32073 ft | 444 kts | 334° |
| 2026-05-06 09:25 | 54.42947 | -2.57780 | 32068 ft | 445 kts | 334° |
| 2026-05-06 09:25 | 54.48678 | -2.61779 | 32083 ft | 445 kts | 334° |
| 2026-05-06 09:26 | 54.54354 | -2.65819 | 32034 ft | 444 kts | 334° |
| 2026-05-06 09:26 | 54.57215 | -2.67847 | 31690 ft | 443 kts | 334° |
| 2026-05-06 09:26 | 54.60061 | -2.69856 | 31232 ft | 440 kts | 334° |
| 2026-05-06 09:26 | 54.62881 | -2.71859 | 30739 ft | 437 kts | 334° |
| 2026-05-06 09:27 | 54.65685 | -2.73861 | 30280 ft | 433 kts | 334° |
| 2026-05-06 09:27 | 54.68461 | -2.75844 | 29771 ft | 430 kts | 334° |
| 2026-05-06 09:27 | 54.71218 | -2.77811 | 29251 ft | 427 kts | 334° |
| 2026-05-06 09:27 | 54.73952 | -2.79765 | 28760 ft | 423 kts | 334° |
| 2026-05-06 09:28 | 54.76670 | -2.81712 | 28260 ft | 420 kts | 334° |
| 2026-05-06 09:28 | 54.79324 | -2.83618 | 27778 ft | 417 kts | 334° |
| 2026-05-06 09:28 | 54.81999 | -2.85540 | 27296 ft | 414 kts | 334° |
| 2026-05-06 09:28 | 54.84648 | -2.87445 | 26823 ft | 411 kts | 334° |
| 2026-05-06 09:29 | 54.87279 | -2.89340 | 26370 ft | 407 kts | 334° |
| 2026-05-06 09:29 | 54.89887 | -2.91222 | 25908 ft | 404 kts | 334° |
| 2026-05-06 09:29 | 54.92477 | -2.93094 | 25460 ft | 402 kts | 334° |
| 2026-05-06 09:29 | 54.95055 | -2.94959 | 25016 ft | 399 kts | 334° |
| 2026-05-06 09:30 | 54.97608 | -2.96809 | 24610 ft | 396 kts | 334° |
| 2026-05-06 09:30 | 55.00143 | -2.98648 | 24158 ft | 393 kts | 334° |
| 2026-05-06 09:30 | 55.02655 | -3.00473 | 23757 ft | 391 kts | 334° |
| 2026-05-06 09:30 | 55.05133 | -3.02276 | 23281 ft | 388 kts | 334° |
| 2026-05-06 09:31 | 55.07610 | -3.04081 | 22798 ft | 385 kts | 334° |
| 2026-05-06 09:31 | 55.10081 | -3.05883 | 22324 ft | 383 kts | 334° |
| 2026-05-06 09:31 | 55.12524 | -3.07668 | 21870 ft | 380 kts | 334° |
| 2026-05-06 09:31 | 55.14961 | -3.09450 | 21400 ft | 377 kts | 334° |
| 2026-05-06 09:32 | 55.17372 | -3.11216 | 20959 ft | 375 kts | 334° |
| 2026-05-06 09:32 | 55.19770 | -3.12975 | 20523 ft | 372 kts | 334° |
| 2026-05-06 09:32 | 55.22151 | -3.14723 | 20086 ft | 370 kts | 334° |
| 2026-05-06 09:32 | 55.24523 | -3.16467 | 19685 ft | 368 kts | 334° |
| 2026-05-06 09:33 | 55.26869 | -3.18195 | 19276 ft | 366 kts | 334° |
| 2026-05-06 09:33 | 55.29271 | -3.19652 | 18959 ft | 368 kts | 345° |
| 2026-05-06 09:33 | 55.31830 | -3.20077 | 18900 ft | 373 kts | 359° |
| 2026-05-06 09:33 | 55.34469 | -3.19738 | 18950 ft | 387 kts | 2° |
| 2026-05-06 09:34 | 55.37164 | -3.19309 | 18993 ft | 400 kts | 2° |
| 2026-05-06 09:34 | 55.39939 | -3.18851 | 18861 ft | 398 kts | 2° |
| 2026-05-06 09:34 | 55.42670 | -3.18418 | 18521 ft | 388 kts | 2° |
| 2026-05-06 09:34 | 55.45247 | -3.18017 | 18067 ft | 357 kts | 1° |
| 2026-05-06 09:35 | 55.47639 | -3.17643 | 17402 ft | 337 kts | 1° |
| 2026-05-06 09:35 | 55.49949 | -3.17286 | 16503 ft | 330 kts | 1° |
| 2026-05-06 09:35 | 55.52244 | -3.16931 | 16053 ft | 328 kts | 1° |
| 2026-05-06 09:35 | 55.54475 | -3.16578 | 15177 ft | 321 kts | 2° |
| 2026-05-06 09:36 | 55.56680 | -3.16228 | 14281 ft | 316 kts | 2° |
| 2026-05-06 09:36 | 55.58854 | -3.15886 | 13341 ft | 311 kts | 2° |
| 2026-05-06 09:36 | 55.60992 | -3.15550 | 12430 ft | 306 kts | 2° |
| 2026-05-06 09:36 | 55.63096 | -3.15218 | 11539 ft | 301 kts | 3° |
| 2026-05-06 09:37 | 55.65140 | -3.14894 | 10670 ft | 297 kts | 3° |
| 2026-05-06 09:37 | 55.67182 | -3.14572 | 9811 ft | 291 kts | 2° |
| 2026-05-06 09:37 | 55.69156 | -3.14831 | 8998 ft | 280 kts | 342° |
| 2026-05-06 09:37 | 55.70863 | -3.16237 | 8478 ft | 265 kts | 323° |
| 2026-05-06 09:38 | 55.72139 | -3.18511 | 7956 ft | 255 kts | 304° |
| 2026-05-06 09:38 | 55.72889 | -3.21261 | 7567 ft | 243 kts | 286° |
| 2026-05-06 09:38 | 55.73338 | -3.24061 | 7222 ft | 230 kts | 288° |
| 2026-05-06 09:38 | 55.73772 | -3.26779 | 6753 ft | 226 kts | 288° |
| 2026-05-06 09:39 | 55.74190 | -3.29426 | 6247 ft | 225 kts | 287° |
| 2026-05-06 09:39 | 55.74615 | -3.32127 | 5678 ft | 225 kts | 287° |
| 2026-05-06 09:39 | 55.75034 | -3.34792 | 5315 ft | 224 kts | 287° |
| 2026-05-06 09:39 | 55.75428 | -3.37308 | 5207 ft | 206 kts | 285° |
| 2026-05-06 09:40 | 55.75820 | -3.39796 | 4683 ft | 211 kts | 285° |
| 2026-05-06 09:40 | 55.76215 | -3.42319 | 4184 ft | 212 kts | 285° |
| 2026-05-06 09:40 | 55.77008 | -3.47393 | 4008 ft | 216 kts | 285° |
| 2026-05-06 09:41 | 55.77401 | -3.49913 | 3997 ft | 210 kts | 285° |
| 2026-05-06 09:41 | 55.77770 | -3.52281 | 3997 ft | 186 kts | 285° |
| 2026-05-06 09:41 | 55.78087 | -3.54343 | 3970 ft | 162 kts | 285° |
| 2026-05-06 09:41 | 55.78396 | -3.56285 | 3975 ft | 163 kts | 285° |
| 2026-05-06 09:42 | 55.78695 | -3.58224 | 3996 ft | 163 kts | 284° |
| 2026-05-06 09:42 | 55.78994 | -3.60168 | 3996 ft | 163 kts | 284° |
| 2026-05-06 09:42 | 55.79291 | -3.62091 | 3992 ft | 160 kts | 284° |
| 2026-05-06 09:42 | 55.79591 | -3.64028 | 3998 ft | 161 kts | 284° |
| 2026-05-06 09:43 | 55.79889 | -3.65965 | 3994 ft | 163 kts | 285° |
| 2026-05-06 09:43 | 55.80179 | -3.67842 | 3999 ft | 153 kts | 284° |
| 2026-05-06 09:43 | 55.80481 | -3.69671 | 3974 ft | 154 kts | 293° |
| 2026-05-06 09:43 | 55.81163 | -3.71057 | 4000 ft | 148 kts | 326° |
| 2026-05-06 09:44 | 55.82116 | -3.71604 | 4006 ft | 144 kts | 360° |
| 2026-05-06 09:44 | 55.83076 | -3.71236 | 3986 ft | 140 kts | 34° |
| 2026-05-06 09:44 | 55.83785 | -3.70112 | 3994 ft | 137 kts | 64° |
| 2026-05-06 09:44 | 55.84273 | -3.68653 | 4010 ft | 136 kts | 59° |
| 2026-05-06 09:45 | 55.84781 | -3.67217 | 3969 ft | 141 kts | 61° |
| 2026-05-06 09:45 | 55.85290 | -3.65723 | 4000 ft | 139 kts | 61° |
| 2026-05-06 09:45 | 55.85792 | -3.64234 | 3996 ft | 141 kts | 63° |
| 2026-05-06 09:45 | 55.86311 | -3.62749 | 4013 ft | 144 kts | 61° |
| 2026-05-06 09:46 | 55.86846 | -3.61229 | 3966 ft | 145 kts | 62° |
| 2026-05-06 09:46 | 55.87364 | -3.59658 | 3709 ft | 147 kts | 63° |
| 2026-05-06 09:46 | 55.87870 | -3.58099 | 3479 ft | 144 kts | 62° |
| 2026-05-06 09:46 | 55.88383 | -3.56597 | 3362 ft | 142 kts | 61° |
| 2026-05-06 09:47 | 55.88925 | -3.55079 | 2996 ft | 146 kts | 60° |
| 2026-05-06 09:47 | 55.89452 | -3.53581 | 2490 ft | 143 kts | 61° |
| 2026-05-06 09:47 | 55.89975 | -3.52091 | 2033 ft | 139 kts | 61° |
| 2026-05-06 09:47 | 55.90478 | -3.50643 | 1844 ft | 140 kts | 62° |
| 2026-05-06 09:48 | 55.90974 | -3.49160 | 1565 ft | 139 kts | 63° |
| 2026-05-06 09:48 | 55.91466 | -3.47666 | 1331 ft | 137 kts | 63° |
| 2026-05-06 09:48 | 55.91953 | -3.46176 | 1200 ft | 137 kts | 62° |
| 2026-05-06 09:48 | 55.92442 | -3.44775 | 808 ft | 134 kts | 58° |
| 2026-05-06 09:49 | 55.92924 | -3.43380 | 677 ft | 130 kts | 60° |
| 2026-05-06 09:49 | 55.93388 | -3.41981 | 579 ft | 133 kts | 59° |
| 2026-05-06 09:49 | 55.93865 | -3.40569 | 414 ft | 131 kts | 58° |
| 2026-05-06 09:49 | 55.94346 | -3.39165 | 211 ft | 132 kts | 58° |
| 2026-05-06 09:50 | 55.94806 | -3.37814 | 114 ft | 113 kts | 58° |
| 2026-05-06 09:50 | 55.95116 | -3.36899 | 110 ft | 62 kts | 58° |
| 2026-05-06 09:50 | 55.95251 | -3.36476 | 103 ft | 17 kts | 91° |
| 2026-05-06 09:50 | 55.95198 | -3.36357 | 103 ft | 9 kts | 149° |
| 2026-05-06 09:51 | 55.95172 | -3.36331 | 104 ft | 0 kts | 149° |
| 2026-05-06 09:52 | 55.95160 | -3.36318 | 105 ft | 5 kts | 150° |
| 2026-05-06 09:52 | 55.95128 | -3.36319 | 105 ft | 5 kts | 213° |
| 2026-05-06 09:52 | 55.95098 | -3.36375 | 107 ft | 7 kts | 227° |
| 2026-05-06 09:53 | 55.95059 | -3.36387 | 108 ft | 5 kts | 169° |
| 2026-05-06 09:53 | 55.95022 | -3.36395 | 106 ft | 6 kts | 210° |
| 2026-05-06 09:53 | 55.94988 | -3.36474 | 106 ft | 8 kts | 231° |
| 2026-05-06 09:53 | 55.94972 | -3.36478 | 107 ft | 4 kts | 172° |
| 2026-05-06 09:54 | 55.94927 | -3.36435 | 107 ft | 5 kts | 147° |
| 2026-05-06 09:54 | 55.94926 | -3.36434 | 107 ft | 0 kts | 147° |